sensor_id;sensor_type;location;lat;lon;timestamp;pressure;altitude;pressure_sealevel;temperature;humidity
6942;BME280;3510;43.200;27.920;2023-04-08T00:02:12;101486.09;;;15.49;47.07
6942;BME280;3510;43.200;27.920;2023-04-08T00:04:38;101504.31;;;15.21;47.54
6942;BME280;3510;43.200;27.920;2023-04-08T00:07:05;101508.59;;;15.00;47.97
6942;BME280;3510;43.200;27.920;2023-04-08T00:09:33;101497.69;;;15.23;47.63
6942;BME280;3510;43.200;27.920;2023-04-08T00:11:59;101485.09;;;15.13;47.31
6942;BME280;3510;43.200;27.920;2023-04-08T00:14:26;101505.00;;;15.98;45.99
6942;BME280;3510;43.200;27.920;2023-04-08T00:16:53;101502.19;;;15.83;45.86
6942;BME280;3510;43.200;27.920;2023-04-08T00:19:21;101500.31;;;15.69;45.75
6942;BME280;3510;43.200;27.920;2023-04-08T00:21:47;101491.81;;;14.91;47.83
6942;BME280;3510;43.200;27.920;2023-04-08T00:24:14;101498.88;;;15.17;47.36
6942;BME280;3510;43.200;27.920;2023-04-08T00:26:40;101498.53;;;15.68;46.34
6942;BME280;3510;43.200;27.920;2023-04-08T00:29:21;101496.56;;;14.98;47.03
6942;BME280;3510;43.200;27.920;2023-04-08T00:31:48;101500.19;;;15.45;45.92
6942;BME280;3510;43.200;27.920;2023-04-08T00:34:16;101504.34;;;15.11;46.92
6942;BME280;3510;43.200;27.920;2023-04-08T00:36:47;101500.31;;;15.13;46.88
6942;BME280;3510;43.200;27.920;2023-04-08T00:39:13;101504.88;;;15.07;46.51
6942;BME280;3510;43.200;27.920;2023-04-08T00:41:41;101497.09;;;14.94;46.95
6942;BME280;3510;43.200;27.920;2023-04-08T00:44:09;101501.34;;;15.61;45.56
6942;BME280;3510;43.200;27.920;2023-04-08T00:46:37;101501.75;;;15.43;45.73
6942;BME280;3510;43.200;27.920;2023-04-08T00:49:04;101507.53;;;15.09;46.82
6942;BME280;3510;43.200;27.920;2023-04-08T00:51:31;101498.63;;;15.36;46.29
6942;BME280;3510;43.200;27.920;2023-04-08T00:59:33;101494.22;;;15.11;46.21
6942;BME280;3510;43.200;27.920;2023-04-08T01:02:03;101501.78;;;15.55;45.74
6942;BME280;3510;43.200;27.920;2023-04-08T01:04:38;101501.88;;;15.23;46.59
6942;BME280;3510;43.200;27.920;2023-04-08T01:07:08;101503.44;;;15.21;46.82
6942;BME280;3510;43.200;27.920;2023-04-08T01:09:37;101503.47;;;15.33;46.78
6942;BME280;3510;43.200;27.920;2023-04-08T01:12:19;101499.06;;;15.42;46.12
6942;BME280;3510;43.200;27.920;2023-04-08T01:14:48;101504.06;;;15.74;45.51
6942;BME280;3510;43.200;27.920;2023-04-08T01:17:15;101501.25;;;15.93;45.05
6942;BME280;3510;43.200;27.920;2023-04-08T01:19:44;101503.75;;;15.69;44.62
6942;BME280;3510;43.200;27.920;2023-04-08T01:22:19;101503.31;;;15.53;45.13
6942;BME280;3510;43.200;27.920;2023-04-08T01:24:50;101506.28;;;15.69;44.36
6942;BME280;3510;43.200;27.920;2023-04-08T01:27:22;101502.34;;;15.85;44.25
6942;BME280;3510;43.200;27.920;2023-04-08T01:29:49;101499.03;;;15.86;43.86
6942;BME280;3510;43.200;27.920;2023-04-08T01:32:17;101500.75;;;15.75;43.67
6942;BME280;3510;43.200;27.920;2023-04-08T01:34:43;101501.75;;;15.43;44.57
6942;BME280;3510;43.200;27.920;2023-04-08T01:37:10;101503.91;;;16.06;43.38
6942;BME280;3510;43.200;27.920;2023-04-08T01:39:37;101509.34;;;16.23;42.71
6942;BME280;3510;43.200;27.920;2023-04-08T01:42:05;101498.94;;;16.55;41.93
6942;BME280;3510;43.200;27.920;2023-04-08T01:44:57;101498.28;;;16.34;41.94
6942;BME280;3510;43.200;27.920;2023-04-08T01:47:24;101507.66;;;16.11;42.30
6942;BME280;3510;43.200;27.920;2023-04-08T01:50:01;101501.38;;;16.53;41.48
6942;BME280;3510;43.200;27.920;2023-04-08T01:52:28;101497.47;;;16.93;40.42
6942;BME280;3510;43.200;27.920;2023-04-08T01:54:56;101494.63;;;16.65;40.66
6942;BME280;3510;43.200;27.920;2023-04-08T01:57:23;101492.97;;;16.66;41.02
6942;BME280;3510;43.200;27.920;2023-04-08T02:00:08;101489.66;;;16.79;40.55
6942;BME280;3510;43.200;27.920;2023-04-08T02:02:35;101489.09;;;16.95;40.28
6942;BME280;3510;43.200;27.920;2023-04-08T02:05:03;101486.53;;;16.83;40.48
6942;BME280;3510;43.200;27.920;2023-04-08T02:07:32;101493.03;;;17.28;39.91
6942;BME280;3510;43.200;27.920;2023-04-08T02:09:59;101487.31;;;16.82;40.83
6942;BME280;3510;43.200;27.920;2023-04-08T02:12:25;101486.22;;;16.78;41.37
6942;BME280;3510;43.200;27.920;2023-04-08T02:14:53;101491.13;;;17.37;40.24
6942;BME280;3510;43.200;27.920;2023-04-08T02:17:24;101493.91;;;17.78;39.34
6942;BME280;3510;43.200;27.920;2023-04-08T02:19:59;101499.50;;;17.61;39.43
6942;BME280;3510;43.200;27.920;2023-04-08T02:22:32;101502.28;;;17.39;40.04
6942;BME280;3510;43.200;27.920;2023-04-08T02:25:03;101509.22;;;17.16;40.72
6942;BME280;3510;43.200;27.920;2023-04-08T02:27:34;101510.72;;;17.01;41.02
6942;BME280;3510;43.200;27.920;2023-04-08T02:30:03;101501.47;;;16.78;41.48
6942;BME280;3510;43.200;27.920;2023-04-08T02:32:34;101491.53;;;16.34;42.38
6942;BME280;3510;43.200;27.920;2023-04-08T02:35:03;101494.88;;;16.33;42.53
6942;BME280;3510;43.200;27.920;2023-04-08T02:37:31;101523.81;;;16.59;42.57
6942;BME280;3510;43.200;27.920;2023-04-08T02:39:58;101404.25;;;15.40;43.15
6942;BME280;3510;43.200;27.920;2023-04-08T02:42:25;101518.25;;;15.38;44.86
6942;BME280;3510;43.200;27.920;2023-04-08T02:45:06;101522.00;;;15.32;45.71
6942;BME280;3510;43.200;27.920;2023-04-08T03:11:08;101534.41;;;16.18;43.41
6942;BME280;3510;43.200;27.920;2023-04-08T03:13:35;101543.53;;;16.04;43.76
6942;BME280;3510;43.200;27.920;2023-04-08T03:16:07;101539.84;;;15.33;45.19
6942;BME280;3510;43.200;27.920;2023-04-08T03:18:40;101544.88;;;15.65;44.24
6942;BME280;3510;43.200;27.920;2023-04-08T03:21:18;101538.91;;;16.10;43.67
6942;BME280;3510;43.200;27.920;2023-04-08T03:23:45;101535.91;;;16.04;43.43
6942;BME280;3510;43.200;27.920;2023-04-08T03:26:27;101540.81;;;16.36;42.74
6942;BME280;3510;43.200;27.920;2023-04-08T03:28:55;101530.88;;;16.63;42.06
6942;BME280;3510;43.200;27.920;2023-04-08T03:31:36;101539.28;;;16.62;41.79
6942;BME280;3510;43.200;27.920;2023-04-08T03:34:03;101545.44;;;16.30;42.52
6942;BME280;3510;43.200;27.920;2023-04-08T03:36:29;101547.44;;;16.23;42.49
6942;BME280;3510;43.200;27.920;2023-04-08T03:39:01;101547.88;;;16.52;41.70
6942;BME280;3510;43.200;27.920;2023-04-08T03:43:59;101558.41;;;16.80;40.83
6942;BME280;3510;43.200;27.920;2023-04-08T03:46:27;101555.72;;;16.90;40.59
6942;BME280;3510;43.200;27.920;2023-04-08T03:49:11;101558.97;;;16.88;40.41
6942;BME280;3510;43.200;27.920;2023-04-08T03:51:39;101552.63;;;16.71;40.83
6942;BME280;3510;43.200;27.920;2023-04-08T03:54:05;101564.13;;;16.89;40.49
6942;BME280;3510;43.200;27.920;2023-04-08T03:56:33;101564.91;;;17.00;40.69
6942;BME280;3510;43.200;27.920;2023-04-08T03:59:01;101566.28;;;17.32;40.15
6942;BME280;3510;43.200;27.920;2023-04-08T04:01:28;101564.59;;;16.96;40.88
6942;BME280;3510;43.200;27.920;2023-04-08T04:03:56;101567.72;;;15.99;43.29
6942;BME280;3510;43.200;27.920;2023-04-08T04:06:26;101570.97;;;16.55;41.88
6942;BME280;3510;43.200;27.920;2023-04-08T04:09:07;101574.63;;;16.94;41.60
6942;BME280;3510;43.200;27.920;2023-04-08T04:11:41;101577.06;;;16.69;42.15
6942;BME280;3510;43.200;27.920;2023-04-08T04:14:24;101585.00;;;17.09;41.68
6942;BME280;3510;43.200;27.920;2023-04-08T04:16:51;101587.63;;;17.22;41.16
6942;BME280;3510;43.200;27.920;2023-04-08T04:19:17;101586.88;;;17.11;41.50
6942;BME280;3510;43.200;27.920;2023-04-08T04:21:58;101589.41;;;16.41;42.79
6942;BME280;3510;43.200;27.920;2023-04-08T04:24:24;101590.88;;;16.96;41.85
6942;BME280;3510;43.200;27.920;2023-04-08T04:26:51;101585.53;;;17.53;40.94
6942;BME280;3510;43.200;27.920;2023-04-08T04:29:20;101581.53;;;17.32;41.26
6942;BME280;3510;43.200;27.920;2023-04-08T04:31:50;101585.13;;;17.72;40.89
6942;BME280;3510;43.200;27.920;2023-04-08T04:34:22;101579.53;;;16.91;41.81
6942;BME280;3510;43.200;27.920;2023-04-08T04:36:49;101575.19;;;17.38;41.42
6942;BME280;3510;43.200;27.920;2023-04-08T04:39:21;101552.50;;;18.43;39.38
6942;BME280;3510;43.200;27.920;2023-04-08T04:41:48;101548.66;;;18.50;38.98
6942;BME280;3510;43.200;27.920;2023-04-08T04:44:16;101576.63;;;18.88;39.08
6942;BME280;3510;43.200;27.920;2023-04-08T04:46:44;101570.75;;;18.89;38.66
6942;BME280;3510;43.200;27.920;2023-04-08T04:49:12;101560.75;;;19.20;38.02
6942;BME280;3510;43.200;27.920;2023-04-08T04:51:39;101578.47;;;17.49;41.04
6942;BME280;3510;43.200;27.920;2023-04-08T04:54:07;101580.59;;;18.18;40.13
6942;BME280;3510;43.200;27.920;2023-04-08T04:56:36;101579.00;;;18.20;40.30
6942;BME280;3510;43.200;27.920;2023-04-08T04:59:17;101573.63;;;18.16;40.41
6942;BME280;3510;43.200;27.920;2023-04-08T05:01:44;101546.06;;;17.97;40.03
6942;BME280;3510;43.200;27.920;2023-04-08T05:04:23;101573.56;;;18.94;38.79
6942;BME280;3510;43.200;27.920;2023-04-08T05:06:50;101594.69;;;18.13;40.22
6942;BME280;3510;43.200;27.920;2023-04-08T05:09:30;101575.41;;;19.09;38.50
6942;BME280;3510;43.200;27.920;2023-04-08T05:11:57;101594.50;;;18.88;38.96
6942;BME280;3510;43.200;27.920;2023-04-08T05:14:24;101576.25;;;18.95;38.86
6942;BME280;3510;43.200;27.920;2023-04-08T05:16:54;101601.78;;;19.65;37.64
6942;BME280;3510;43.200;27.920;2023-04-08T05:19:23;101597.97;;;19.58;37.77
6942;BME280;3510;43.200;27.920;2023-04-08T05:21:49;101597.16;;;19.87;37.60
6942;BME280;3510;43.200;27.920;2023-04-08T05:24:16;101603.97;;;20.75;35.82
6942;BME280;3510;43.200;27.920;2023-04-08T05:26:43;101585.91;;;20.28;36.63
6942;BME280;3510;43.200;27.920;2023-04-08T05:29:16;101599.47;;;19.97;37.29
6942;BME280;3510;43.200;27.920;2023-04-08T05:31:46;101587.47;;;19.81;37.52
6942;BME280;3510;43.200;27.920;2023-04-08T05:34:30;101608.84;;;20.12;37.52
6942;BME280;3510;43.200;27.920;2023-04-08T05:36:57;101565.00;;;19.48;38.52
6942;BME280;3510;43.200;27.920;2023-04-08T05:39:24;101598.81;;;19.44;38.80
6942;BME280;3510;43.200;27.920;2023-04-08T05:41:51;101569.25;;;19.06;40.21
6942;BME280;3510;43.200;27.920;2023-04-08T05:44:18;101595.72;;;18.68;41.27
6942;BME280;3510;43.200;27.920;2023-04-08T05:46:55;101578.41;;;19.30;40.06
6942;BME280;3510;43.200;27.920;2023-04-08T05:49:23;101607.34;;;20.15;39.13
6942;BME280;3510;43.200;27.920;2023-04-08T05:52:07;101607.97;;;20.41;38.26
6942;BME280;3510;43.200;27.920;2023-04-08T05:54:48;101549.34;;;19.56;39.03
6942;BME280;3510;43.200;27.920;2023-04-08T06:05:02;101591.06;;;18.74;41.92
6942;BME280;3510;43.200;27.920;2023-04-08T06:07:31;101610.03;;;18.53;42.08
6942;BME280;3510;43.200;27.920;2023-04-08T06:09:58;101611.38;;;18.21;43.13
6942;BME280;3510;43.200;27.920;2023-04-08T06:14:58;101614.50;;;18.82;41.90
6942;BME280;3510;43.200;27.920;2023-04-08T06:17:29;101611.84;;;18.94;41.86
6942;BME280;3510;43.200;27.920;2023-04-08T06:19:57;101608.59;;;18.96;42.05
6942;BME280;3510;43.200;27.920;2023-04-08T06:22:24;101618.50;;;18.65;42.35
6942;BME280;3510;43.200;27.920;2023-04-08T06:24:56;101596.25;;;18.89;41.59
6942;BME280;3510;43.200;27.920;2023-04-08T06:27:23;101624.28;;;18.76;42.05
6942;BME280;3510;43.200;27.920;2023-04-08T06:29:53;101619.13;;;20.43;38.72
6942;BME280;3510;43.200;27.920;2023-04-08T06:32:34;101606.72;;;20.49;38.41
6942;BME280;3510;43.200;27.920;2023-04-08T06:35:01;101617.72;;;19.89;39.39
6942;BME280;3510;43.200;27.920;2023-04-08T06:37:28;101619.94;;;20.27;38.84
6942;BME280;3510;43.200;27.920;2023-04-08T06:40:07;101589.91;;;19.80;39.44
6942;BME280;3510;43.200;27.920;2023-04-08T06:42:35;101594.06;;;19.08;40.41
6942;BME280;3510;43.200;27.920;2023-04-08T06:45:03;101611.44;;;19.01;41.62
6942;BME280;3510;43.200;27.920;2023-04-08T06:50:05;101612.91;;;18.97;41.80
6942;BME280;3510;43.200;27.920;2023-04-08T06:52:31;101615.31;;;19.36;41.27
6942;BME280;3510;43.200;27.920;2023-04-08T06:54:59;101613.88;;;19.67;40.70
6942;BME280;3510;43.200;27.920;2023-04-08T06:57:33;101575.31;;;19.21;40.84
6942;BME280;3510;43.200;27.920;2023-04-08T07:00:06;101630.97;;;19.83;40.78
6942;BME280;3510;43.200;27.920;2023-04-08T07:02:34;101606.19;;;19.95;40.68
6942;BME280;3510;43.200;27.920;2023-04-08T07:05:01;101605.19;;;20.51;39.05
6942;BME280;3510;43.200;27.920;2023-04-08T07:07:29;101599.19;;;21.13;38.18
6942;BME280;3510;43.200;27.920;2023-04-08T07:10:04;101547.28;;;21.15;37.43
6942;BME280;3510;43.200;27.920;2023-04-08T07:12:33;101630.66;;;21.10;38.43
6942;BME280;3510;43.200;27.920;2023-04-08T07:15:00;101631.09;;;21.03;38.46
6942;BME280;3510;43.200;27.920;2023-04-08T07:20:08;101634.84;;;20.34;39.92
6942;BME280;3510;43.200;27.920;2023-04-08T07:22:38;101631.31;;;20.17;40.05
6942;BME280;3510;43.200;27.920;2023-04-08T07:25:05;101649.97;;;20.01;40.12
6942;BME280;3510;43.200;27.920;2023-04-08T07:27:48;101650.81;;;20.30;39.96
6942;BME280;3510;43.200;27.920;2023-04-08T07:30:18;101621.66;;;19.98;40.00
6942;BME280;3510;43.200;27.920;2023-04-08T07:32:59;101614.56;;;20.08;39.61
6942;BME280;3510;43.200;27.920;2023-04-08T07:35:26;101657.44;;;20.71;39.43
6942;BME280;3510;43.200;27.920;2023-04-08T07:37:53;101661.66;;;20.85;38.74
6942;BME280;3510;43.200;27.920;2023-04-08T07:40:20;101646.69;;;19.89;40.94
6942;BME280;3510;43.200;27.920;2023-04-08T07:42:48;101651.31;;;20.98;38.92
6942;BME280;3510;43.200;27.920;2023-04-08T07:45:15;101635.00;;;20.96;38.65
6942;BME280;3510;43.200;27.920;2023-04-08T07:47:43;101655.75;;;20.71;39.35
6942;BME280;3510;43.200;27.920;2023-04-08T07:50:10;101651.78;;;20.91;39.20
6942;BME280;3510;43.200;27.920;2023-04-08T07:55:09;101655.94;;;20.74;39.36
6942;BME280;3510;43.200;27.920;2023-04-08T08:35:14;101676.84;;;21.28;39.38
6942;BME280;3510;43.200;27.920;2023-04-08T08:37:54;101618.56;;;20.17;40.50
6942;BME280;3510;43.200;27.920;2023-04-08T08:40:28;101675.59;;;20.46;40.54
6942;BME280;3510;43.200;27.920;2023-04-08T08:42:59;101648.97;;;20.72;40.33
6942;BME280;3510;43.200;27.920;2023-04-08T08:45:45;101541.53;;;21.03;38.26
6942;BME280;3510;43.200;27.920;2023-04-08T08:48:16;101566.09;;;21.16;37.88
6942;BME280;3510;43.200;27.920;2023-04-08T08:51:00;101676.34;;;22.32;37.17
6942;BME280;3510;43.200;27.920;2023-04-08T08:53:33;101660.72;;;22.61;36.41
6942;BME280;3510;43.200;27.920;2023-04-08T08:56:12;101680.16;;;22.56;36.45
6942;BME280;3510;43.200;27.920;2023-04-08T09:12:27;101698.75;;;21.85;37.04
6942;BME280;3510;43.200;27.920;2023-04-08T09:15:04;101674.34;;;22.94;35.10
6942;BME280;3510;43.200;27.920;2023-04-08T09:17:53;101684.22;;;23.40;34.25
6942;BME280;3510;43.200;27.920;2023-04-08T09:20:29;101686.38;;;24.07;33.17
6942;BME280;3510;43.200;27.920;2023-04-08T09:23:10;101692.81;;;23.78;34.22
6942;BME280;3510;43.200;27.920;2023-04-08T09:25:38;101686.16;;;24.22;33.50
6942;BME280;3510;43.200;27.920;2023-04-08T09:28:19;101680.75;;;24.56;32.84
6942;BME280;3510;43.200;27.920;2023-04-08T09:30:47;101686.22;;;24.24;32.91
6942;BME280;3510;43.200;27.920;2023-04-08T09:33:15;101647.13;;;23.16;34.22
6942;BME280;3510;43.200;27.920;2023-04-08T09:35:45;101647.75;;;23.86;33.46
6942;BME280;3510;43.200;27.920;2023-04-08T09:38:28;101586.28;;;21.75;36.42
6942;BME280;3510;43.200;27.920;2023-04-08T09:57:04;101677.63;;;24.23;33.64
6942;BME280;3510;43.200;27.920;2023-04-08T09:59:36;101676.44;;;23.96;34.18
6942;BME280;3510;43.200;27.920;2023-04-08T10:02:24;101696.25;;;23.98;34.03
6942;BME280;3510;43.200;27.920;2023-04-08T10:04:59;101669.00;;;23.82;33.94
6942;BME280;3510;43.200;27.920;2023-04-08T10:07:28;101670.59;;;22.88;35.71
6942;BME280;3510;43.200;27.920;2023-04-08T10:10:14;101690.16;;;22.34;37.05
6942;BME280;3510;43.200;27.920;2023-04-08T10:13:18;101669.97;;;21.74;37.81
6942;BME280;3510;43.200;27.920;2023-04-08T10:15:45;101684.88;;;20.88;39.29
6942;BME280;3510;43.200;27.920;2023-04-08T10:18:29;101686.63;;;21.83;38.52
6942;BME280;3510;43.200;27.920;2023-04-08T10:24:10;101675.16;;;21.76;38.41
6942;BME280;3510;43.200;27.920;2023-04-08T10:26:51;101674.06;;;22.04;37.77
6942;BME280;3510;43.200;27.920;2023-04-08T11:15:29;101673.78;;;21.19;38.69
6942;BME280;3510;43.200;27.920;2023-04-08T11:18:10;101653.56;;;21.55;38.43
6942;BME280;3510;43.200;27.920;2023-04-08T11:20:51;101648.75;;;21.61;38.29
6942;BME280;3510;43.200;27.920;2023-04-08T11:23:32;101664.78;;;21.73;37.98
6942;BME280;3510;43.200;27.920;2023-04-08T11:25:59;101659.09;;;21.62;38.08
6942;BME280;3510;43.200;27.920;2023-04-08T11:28:27;101620.88;;;21.83;37.91
6942;BME280;3510;43.200;27.920;2023-04-08T11:37:03;101653.22;;;23.18;35.81
6942;BME280;3510;43.200;27.920;2023-04-08T11:39:31;101616.41;;;23.00;35.32
6942;BME280;3510;43.200;27.920;2023-04-08T11:42:27;101644.25;;;23.47;35.19
6942;BME280;3510;43.200;27.920;2023-04-08T11:47:47;101644.16;;;22.90;35.77
6942;BME280;3510;43.200;27.920;2023-04-08T11:50:22;101639.78;;;22.70;36.06
6942;BME280;3510;43.200;27.920;2023-04-08T11:53:15;101625.84;;;21.96;37.10
6942;BME280;3510;43.200;27.920;2023-04-08T11:55:56;101635.94;;;21.61;37.43
6942;BME280;3510;43.200;27.920;2023-04-08T11:58:37;101628.00;;;21.72;37.50
6942;BME280;3510;43.200;27.920;2023-04-08T12:01:18;101630.34;;;21.84;37.51
6942;BME280;3510;43.200;27.920;2023-04-08T12:03:54;101625.34;;;22.04;36.99
6942;BME280;3510;43.200;27.920;2023-04-08T12:06:21;101623.00;;;22.08;37.24
6942;BME280;3510;43.200;27.920;2023-04-08T12:09:00;101616.88;;;21.56;37.60
6942;BME280;3510;43.200;27.920;2023-04-08T12:11:28;101607.59;;;21.74;37.39
6942;BME280;3510;43.200;27.920;2023-04-08T12:14:05;101619.94;;;22.14;36.90
6942;BME280;3510;43.200;27.920;2023-04-08T12:16:32;101617.56;;;22.02;37.13
6942;BME280;3510;43.200;27.920;2023-04-08T12:18:59;101621.41;;;22.27;36.79
6942;BME280;3510;43.200;27.920;2023-04-08T12:21:25;101626.56;;;22.80;36.02
6942;BME280;3510;43.200;27.920;2023-04-08T12:24:12;101627.78;;;23.24;35.23
6942;BME280;3510;43.200;27.920;2023-04-08T12:26:39;101618.16;;;23.38;34.83
6942;BME280;3510;43.200;27.920;2023-04-08T12:29:06;101621.31;;;24.10;33.78
6942;BME280;3510;43.200;27.920;2023-04-08T12:31:36;101572.31;;;24.92;32.65
6942;BME280;3510;43.200;27.920;2023-04-08T12:34:03;101586.22;;;24.75;32.28
6942;BME280;3510;43.200;27.920;2023-04-08T12:36:31;101583.00;;;25.73;30.35
6942;BME280;3510;43.200;27.920;2023-04-08T12:38:59;101582.25;;;26.52;29.58
6942;BME280;3510;43.200;27.920;2023-04-08T12:41:43;101498.22;;;26.92;28.39
6942;BME280;3510;43.200;27.920;2023-04-08T12:44:10;101550.94;;;28.29;27.28
6942;BME280;3510;43.200;27.920;2023-04-08T12:46:51;101603.44;;;29.36;26.36
6942;BME280;3510;43.200;27.920;2023-04-08T12:49:19;101600.19;;;29.47;25.72
6942;BME280;3510;43.200;27.920;2023-04-08T12:51:45;101562.22;;;28.67;26.43
6942;BME280;3510;43.200;27.920;2023-04-08T12:54:12;101604.16;;;27.83;27.70
6942;BME280;3510;43.200;27.920;2023-04-08T12:56:41;101572.94;;;25.55;30.41
6942;BME280;3510;43.200;27.920;2023-04-08T12:59:25;101568.09;;;24.72;32.08
6942;BME280;3510;43.200;27.920;2023-04-08T13:02:06;101555.56;;;22.99;34.87
6942;BME280;3510;43.200;27.920;2023-04-08T13:04:41;101560.47;;;22.76;35.39
6942;BME280;3510;43.200;27.920;2023-04-08T13:07:14;101591.94;;;22.18;36.88
6942;BME280;3510;43.200;27.920;2023-04-08T13:09:40;101571.34;;;22.01;37.45
6942;BME280;3510;43.200;27.920;2023-04-08T13:12:07;101584.22;;;21.84;37.59
6942;BME280;3510;43.200;27.920;2023-04-08T13:14:38;101575.97;;;21.73;38.00
6942;BME280;3510;43.200;27.920;2023-04-08T13:17:19;101574.25;;;21.90;37.75
6942;BME280;3510;43.200;27.920;2023-04-08T13:19:46;101570.75;;;21.72;38.56
6942;BME280;3510;43.200;27.920;2023-04-08T13:22:15;101556.28;;;21.56;38.48
6942;BME280;3510;43.200;27.920;2023-04-08T13:24:46;101585.34;;;21.73;38.28
6942;BME280;3510;43.200;27.920;2023-04-08T13:29:55;101587.25;;;21.61;39.06
6942;BME280;3510;43.200;27.920;2023-04-08T13:37:46;101589.75;;;21.28;40.17
6942;BME280;3510;43.200;27.920;2023-04-08T13:40:27;101586.59;;;21.65;38.79
6942;BME280;3510;43.200;27.920;2023-04-08T13:43:31;101573.50;;;21.42;39.03
6942;BME280;3510;43.200;27.920;2023-04-08T13:45:59;101588.97;;;21.94;38.21
6942;BME280;3510;43.200;27.920;2023-04-08T13:48:42;101465.97;;;21.27;37.79
6942;BME280;3510;43.200;27.920;2023-04-08T13:51:28;101513.66;;;21.74;37.17
6942;BME280;3510;43.200;27.920;2023-04-08T13:53:59;101505.09;;;21.74;37.76
6942;BME280;3510;43.200;27.920;2023-04-08T13:56:28;101583.56;;;21.88;38.21
6942;BME280;3510;43.200;27.920;2023-04-08T13:59:27;101539.38;;;21.60;38.06
6942;BME280;3510;43.200;27.920;2023-04-08T14:02:08;101473.75;;;21.45;37.58
6942;BME280;3510;43.200;27.920;2023-04-08T14:04:49;101491.88;;;20.68;39.07
6942;BME280;3510;43.200;27.920;2023-04-08T14:07:30;101587.91;;;21.57;38.62
6942;BME280;3510;43.200;27.920;2023-04-08T14:10:11;101521.44;;;19.88;40.83
6942;BME280;3510;43.200;27.920;2023-04-08T14:12:53;101575.19;;;21.58;39.32
6942;BME280;3510;43.200;27.920;2023-04-08T14:15:46;101576.66;;;21.87;38.60
6942;BME280;3510;43.200;27.920;2023-04-08T14:18:36;101531.94;;;21.98;37.30
6942;BME280;3510;43.200;27.920;2023-04-08T14:21:19;101571.53;;;21.87;37.97
6942;BME280;3510;43.200;27.920;2023-04-08T14:24:21;101574.91;;;22.20;37.45
6942;BME280;3510;43.200;27.920;2023-04-08T14:26:55;101534.31;;;22.12;37.37
6942;BME280;3510;43.200;27.920;2023-04-08T14:32:04;101567.38;;;21.89;37.97
6942;BME280;3510;43.200;27.920;2023-04-08T14:34:31;101538.09;;;21.35;38.49
6942;BME280;3510;43.200;27.920;2023-04-08T14:36:59;101546.31;;;21.79;37.81
6942;BME280;3510;43.200;27.920;2023-04-08T14:39:41;101498.66;;;21.82;37.62
6942;BME280;3510;43.200;27.920;2023-04-08T14:42:19;101525.75;;;21.77;38.26
6942;BME280;3510;43.200;27.920;2023-04-08T14:45:00;101568.63;;;21.16;39.05
6942;BME280;3510;43.200;27.920;2023-04-08T14:47:43;101564.16;;;21.12;39.31
6942;BME280;3510;43.200;27.920;2023-04-08T14:50:11;101550.59;;;20.82;39.64
6942;BME280;3510;43.200;27.920;2023-04-08T14:52:53;101562.81;;;20.56;40.28
6942;BME280;3510;43.200;27.920;2023-04-08T14:55:33;101470.13;;;19.27;41.54
6942;BME280;3510;43.200;27.920;2023-04-08T14:58:05;101540.63;;;20.11;40.98
6942;BME280;3510;43.200;27.920;2023-04-08T15:00:46;101558.47;;;20.70;40.09
6942;BME280;3510;43.200;27.920;2023-04-08T15:12:03;101543.44;;;20.76;40.17
6942;BME280;3510;43.200;27.920;2023-04-08T15:14:30;101556.59;;;20.06;41.41
6942;BME280;3510;43.200;27.920;2023-04-08T15:16:58;101544.84;;;20.25;40.64
6942;BME280;3510;43.200;27.920;2023-04-08T15:19:40;101490.88;;;20.20;40.42
6942;BME280;3510;43.200;27.920;2023-04-08T15:22:21;101546.22;;;20.64;39.79
6942;BME280;3510;43.200;27.920;2023-04-08T15:25:09;101528.41;;;20.66;39.87
6942;BME280;3510;43.200;27.920;2023-04-08T15:33:40;101541.59;;;21.05;39.10
6942;BME280;3510;43.200;27.920;2023-04-08T15:36:09;101542.03;;;20.81;39.36
6942;BME280;3510;43.200;27.920;2023-04-08T15:42:05;101556.91;;;20.57;39.54
6942;BME280;3510;43.200;27.920;2023-04-08T15:45:16;101520.88;;;20.23;39.90
6942;BME280;3510;43.200;27.920;2023-04-08T15:48:17;101551.50;;;19.64;41.96
6942;BME280;3510;43.200;27.920;2023-04-08T16:06:55;101558.41;;;20.09;41.18
6942;BME280;3510;43.200;27.920;2023-04-08T16:09:22;101466.97;;;19.31;41.55
6942;BME280;3510;43.200;27.920;2023-04-08T16:11:53;101561.06;;;20.11;40.99
6942;BME280;3510;43.200;27.920;2023-04-08T16:17:16;101564.94;;;19.89;41.16
6942;BME280;3510;43.200;27.920;2023-04-08T16:19:57;101556.38;;;19.89;40.74
6942;BME280;3510;43.200;27.920;2023-04-08T16:22:46;101557.25;;;19.74;41.17
6942;BME280;3510;43.200;27.920;2023-04-08T16:25:14;101560.69;;;19.05;42.53
6942;BME280;3510;43.200;27.920;2023-04-08T16:30:16;101572.50;;;19.31;42.28
6942;BME280;3510;43.200;27.920;2023-04-08T16:37:54;101573.31;;;19.58;42.07
6942;BME280;3510;43.200;27.920;2023-04-08T16:40:21;101590.47;;;19.89;41.50
6942;BME280;3510;43.200;27.920;2023-04-08T16:42:48;101569.94;;;19.73;41.58
6942;BME280;3510;43.200;27.920;2023-04-08T16:45:14;101541.66;;;19.70;41.29
6942;BME280;3510;43.200;27.920;2023-04-08T16:47:42;101605.56;;;19.99;40.92
6942;BME280;3510;43.200;27.920;2023-04-08T16:50:09;101602.69;;;19.80;41.02
6942;BME280;3510;43.200;27.920;2023-04-08T16:52:36;101585.63;;;19.94;40.62
6942;BME280;3510;43.200;27.920;2023-04-08T16:55:05;101583.81;;;18.80;42.88
6942;BME280;3510;43.200;27.920;2023-04-08T16:57:33;101601.66;;;19.35;42.23
6942;BME280;3510;43.200;27.920;2023-04-08T17:00:01;101608.31;;;18.92;43.54
6942;BME280;3510;43.200;27.920;2023-04-08T17:02:28;101573.38;;;18.37;44.05
6942;BME280;3510;43.200;27.920;2023-04-08T17:04:55;101594.66;;;18.65;43.89
6942;BME280;3510;43.200;27.920;2023-04-08T17:07:23;101594.94;;;18.43;44.06
6942;BME280;3510;43.200;27.920;2023-04-08T17:10:00;101608.78;;;18.59;43.94
6942;BME280;3510;43.200;27.920;2023-04-08T17:12:29;101603.72;;;18.86;43.42
6942;BME280;3510;43.200;27.920;2023-04-08T17:14:57;101595.72;;;18.68;43.54
6942;BME280;3510;43.200;27.920;2023-04-08T17:17:24;101566.31;;;18.60;43.96
6942;BME280;3510;43.200;27.920;2023-04-08T17:19:56;101553.09;;;18.79;43.24